sensor_id;sensor_type;location;lat;lon;timestamp;pressure;altitude;pressure_sealevel;temperature;humidity
6835;BME280;3455;42.150;24.734;2023-05-12T00:00:49;67005.97;;;15.70;55.90
6835;BME280;3455;42.150;24.734;2023-05-12T00:03:16;67026.75;;;15.72;55.98
6835;BME280;3455;42.150;24.734;2023-05-12T00:05:43;67013.63;;;15.81;55.59
6835;BME280;3455;42.150;24.734;2023-05-12T00:08:10;67009.56;;;15.77;55.64
6835;BME280;3455;42.150;24.734;2023-05-12T00:10:36;67046.66;;;16.10;54.63
6835;BME280;3455;42.150;24.734;2023-05-12T00:13:03;67036.81;;;16.02;55.08
6835;BME280;3455;42.150;24.734;2023-05-12T00:15:30;66981.09;;;15.86;55.78
6835;BME280;3455;42.150;24.734;2023-05-12T00:17:58;67028.31;;;16.14;54.92
6835;BME280;3455;42.150;24.734;2023-05-12T00:20:25;67072.78;;;16.33;54.17
6835;BME280;3455;42.150;24.734;2023-05-12T00:22:51;67047.00;;;16.24;54.33
6835;BME280;3455;42.150;24.734;2023-05-12T00:25:18;67035.19;;;15.93;55.11
6835;BME280;3455;42.150;24.734;2023-05-12T00:27:45;66999.69;;;15.69;55.81
6835;BME280;3455;42.150;24.734;2023-05-12T00:30:12;67009.91;;;15.69;55.73
6835;BME280;3455;42.150;24.734;2023-05-12T00:32:38;66996.22;;;15.66;56.10
6835;BME280;3455;42.150;24.734;2023-05-12T00:35:08;66988.78;;;15.86;55.83
6835;BME280;3455;42.150;24.734;2023-05-12T00:37:35;66986.00;;;15.77;55.74
6835;BME280;3455;42.150;24.734;2023-05-12T00:40:02;66989.72;;;15.55;56.22
6835;BME280;3455;42.150;24.734;2023-05-12T00:42:29;66981.72;;;15.53;56.46
6835;BME280;3455;42.150;24.734;2023-05-12T00:44:56;66993.63;;;15.88;55.68
6835;BME280;3455;42.150;24.734;2023-05-12T00:47:22;66999.13;;;15.57;56.43
6835;BME280;3455;42.150;24.734;2023-05-12T00:49:50;67011.63;;;15.93;55.63
6835;BME280;3455;42.150;24.734;2023-05-12T00:52:18;66973.06;;;15.34;57.17
6835;BME280;3455;42.150;24.734;2023-05-12T00:54:45;66967.22;;;15.40;56.97
6835;BME280;3455;42.150;24.734;2023-05-12T00:57:13;67008.75;;;15.68;56.38
6835;BME280;3455;42.150;24.734;2023-05-12T00:59:40;66992.28;;;15.55;56.52
6835;BME280;3455;42.150;24.734;2023-05-12T01:02:07;66972.78;;;15.58;56.56
6835;BME280;3455;42.150;24.734;2023-05-12T01:04:34;66982.16;;;15.71;56.15
6835;BME280;3455;42.150;24.734;2023-05-12T01:07:04;67021.72;;;16.00;55.83
6835;BME280;3455;42.150;24.734;2023-05-12T01:09:35;67055.88;;;15.91;55.47
6835;BME280;3455;42.150;24.734;2023-05-12T01:12:02;67010.22;;;16.05;55.20
6835;BME280;3455;42.150;24.734;2023-05-12T01:14:29;67042.88;;;15.93;55.53
6835;BME280;3455;42.150;24.734;2023-05-12T01:16:58;67066.00;;;15.98;55.19
6835;BME280;3455;42.150;24.734;2023-05-12T01:19:37;67000.25;;;15.92;55.38
6835;BME280;3455;42.150;24.734;2023-05-12T01:22:06;66980.66;;;15.79;55.65
6835;BME280;3455;42.150;24.734;2023-05-12T01:24:41;67012.41;;;16.03;55.12
6835;BME280;3455;42.150;24.734;2023-05-12T01:27:09;66983.66;;;15.86;55.45
6835;BME280;3455;42.150;24.734;2023-05-12T01:29:37;67021.16;;;15.88;55.02
6835;BME280;3455;42.150;24.734;2023-05-12T01:32:05;67047.66;;;15.91;55.11
6835;BME280;3455;42.150;24.734;2023-05-12T01:34:33;67061.16;;;16.23;54.20
6835;BME280;3455;42.150;24.734;2023-05-12T01:37:00;67012.47;;;15.80;55.29
6835;BME280;3455;42.150;24.734;2023-05-12T01:39:27;67016.38;;;16.02;54.56
6835;BME280;3455;42.150;24.734;2023-05-12T01:41:53;66982.00;;;15.89;54.73
6835;BME280;3455;42.150;24.734;2023-05-12T01:44:21;67087.00;;;16.10;54.93
6835;BME280;3455;42.150;24.734;2023-05-12T01:46:48;67060.28;;;16.09;54.31
6835;BME280;3455;42.150;24.734;2023-05-12T01:49:15;67009.59;;;15.55;55.69
6835;BME280;3455;42.150;24.734;2023-05-12T01:51:41;66911.69;;;15.68;55.44
6835;BME280;3455;42.150;24.734;2023-05-12T01:54:08;66991.09;;;15.88;55.07
6835;BME280;3455;42.150;24.734;2023-05-12T01:56:35;67028.97;;;15.81;55.20
6835;BME280;3455;42.150;24.734;2023-05-12T01:59:01;67022.69;;;15.80;55.07
6835;BME280;3455;42.150;24.734;2023-05-12T02:01:29;66966.19;;;15.93;54.93
6835;BME280;3455;42.150;24.734;2023-05-12T02:03:56;66995.00;;;15.99;54.49
6835;BME280;3455;42.150;24.734;2023-05-12T02:06:23;67005.50;;;15.74;54.72
6835;BME280;3455;42.150;24.734;2023-05-12T02:08:51;67022.84;;;16.12;54.67
6835;BME280;3455;42.150;24.734;2023-05-12T02:11:17;67041.03;;;15.87;54.55
6835;BME280;3455;42.150;24.734;2023-05-12T02:13:44;67028.69;;;15.94;54.64
6835;BME280;3455;42.150;24.734;2023-05-12T02:16:11;67050.66;;;15.98;54.29
6835;BME280;3455;42.150;24.734;2023-05-12T02:18:39;66957.91;;;15.77;54.87
6835;BME280;3455;42.150;24.734;2023-05-12T02:21:06;66983.69;;;15.75;54.73
6835;BME280;3455;42.150;24.734;2023-05-12T02:23:33;67016.53;;;15.84;54.65
6835;BME280;3455;42.150;24.734;2023-05-12T02:25:59;67020.59;;;15.76;54.79
6835;BME280;3455;42.150;24.734;2023-05-12T02:28:26;67037.34;;;15.75;55.01
6835;BME280;3455;42.150;24.734;2023-05-12T02:30:53;66976.25;;;15.73;54.89
6835;BME280;3455;42.150;24.734;2023-05-12T02:33:20;66918.00;;;15.46;55.36
6835;BME280;3455;42.150;24.734;2023-05-12T02:35:48;67022.91;;;15.89;54.48
6835;BME280;3455;42.150;24.734;2023-05-12T02:38:15;67017.13;;;15.84;54.13
6835;BME280;3455;42.150;24.734;2023-05-12T02:40:42;67045.88;;;16.01;53.87
6835;BME280;3455;42.150;24.734;2023-05-12T02:43:09;67005.50;;;15.74;54.55
6835;BME280;3455;42.150;24.734;2023-05-12T02:45:36;67031.53;;;15.36;55.17
6835;BME280;3455;42.150;24.734;2023-05-12T02:48:03;66993.00;;;15.49;55.13
6835;BME280;3455;42.150;24.734;2023-05-12T02:50:30;66996.22;;;15.66;54.70
6835;BME280;3455;42.150;24.734;2023-05-12T02:52:58;67018.25;;;15.96;54.07
6835;BME280;3455;42.150;24.734;2023-05-12T02:55:25;67005.97;;;15.70;54.66
6835;BME280;3455;42.150;24.734;2023-05-12T02:57:52;67039.97;;;15.91;54.07
6835;BME280;3455;42.150;24.734;2023-05-12T03:00:19;67021.69;;;16.11;53.51
6835;BME280;3455;42.150;24.734;2023-05-12T03:02:45;67064.22;;;16.08;53.85
6835;BME280;3455;42.150;24.734;2023-05-12T03:05:12;67050.06;;;16.09;53.59
6835;BME280;3455;42.150;24.734;2023-05-12T03:07:39;67017.53;;;16.03;53.54
6835;BME280;3455;42.150;24.734;2023-05-12T03:10:08;67053.53;;;16.12;53.63
6835;BME280;3455;42.150;24.734;2023-05-12T03:12:35;67006.16;;;16.02;53.65
6835;BME280;3455;42.150;24.734;2023-05-12T03:15:02;67078.84;;;16.25;53.20
6835;BME280;3455;42.150;24.734;2023-05-12T03:17:29;67063.09;;;16.07;52.86
6835;BME280;3455;42.150;24.734;2023-05-12T03:19:55;67037.47;;;16.29;53.05
6835;BME280;3455;42.150;24.734;2023-05-12T03:22:22;67026.38;;;15.92;53.78
6835;BME280;3455;42.150;24.734;2023-05-12T03:24:49;67010.16;;;15.78;54.30
6835;BME280;3455;42.150;24.734;2023-05-12T03:27:17;67066.06;;;16.14;53.60
6835;BME280;3455;42.150;24.734;2023-05-12T03:29:44;67047.25;;;16.11;53.35
6835;BME280;3455;42.150;24.734;2023-05-12T03:32:11;67031.03;;;15.96;53.67
6835;BME280;3455;42.150;24.734;2023-05-12T03:34:38;67017.69;;;15.85;53.74
6835;BME280;3455;42.150;24.734;2023-05-12T03:37:05;67022.44;;;15.82;54.13
6835;BME280;3455;42.150;24.734;2023-05-12T03:39:32;67022.69;;;15.80;54.14
6835;BME280;3455;42.150;24.734;2023-05-12T03:41:59;67008.28;;;15.72;54.35
6835;BME280;3455;42.150;24.734;2023-05-12T03:44:27;67017.81;;;15.78;54.28
6835;BME280;3455;42.150;24.734;2023-05-12T03:46:53;66999.09;;;15.91;53.85
6835;BME280;3455;42.150;24.734;2023-05-12T03:49:20;67050.09;;;15.98;53.96
6835;BME280;3455;42.150;24.734;2023-05-12T03:51:47;67012.47;;;15.80;53.89
6835;BME280;3455;42.150;24.734;2023-05-12T03:54:14;67070.97;;;16.05;53.60
6835;BME280;3455;42.150;24.734;2023-05-12T03:56:40;67076.81;;;15.87;53.02
6835;BME280;3455;42.150;24.734;2023-05-12T03:59:07;67064.84;;;16.47;52.71
6835;BME280;3455;42.150;24.734;2023-05-12T04:01:37;67108.75;;;16.65;52.35
6835;BME280;3455;42.150;24.734;2023-05-12T04:04:04;67120.38;;;16.64;51.88
6835;BME280;3455;42.150;24.734;2023-05-12T04:06:30;67144.16;;;16.97;51.36
6835;BME280;3455;42.150;24.734;2023-05-12T04:08:57;67147.06;;;16.99;51.33
6835;BME280;3455;42.150;24.734;2023-05-12T04:11:24;67146.41;;;17.21;50.61
6835;BME280;3455;42.150;24.734;2023-05-12T04:13:51;67159.31;;;17.26;50.38
6835;BME280;3455;42.150;24.734;2023-05-12T04:16:18;67119.94;;;17.07;50.80
6835;BME280;3455;42.150;24.734;2023-05-12T04:18:47;67196.81;;;17.61;49.93
6835;BME280;3455;42.150;24.734;2023-05-12T04:21:14;67152.84;;;17.04;51.23
6835;BME280;3455;42.150;24.734;2023-05-12T04:23:41;67176.63;;;16.98;51.35
6835;BME280;3455;42.150;24.734;2023-05-12T04:26:07;67156.91;;;17.08;50.50
6835;BME280;3455;42.150;24.734;2023-05-12T04:28:34;67149.38;;;17.01;50.58
6835;BME280;3455;42.150;24.734;2023-05-12T04:31:02;67117.00;;;17.04;50.60
6835;BME280;3455;42.150;24.734;2023-05-12T04:33:29;67134.34;;;17.42;49.82
6835;BME280;3455;42.150;24.734;2023-05-12T04:35:57;67216.44;;;17.36;49.69
6835;BME280;3455;42.150;24.734;2023-05-12T04:38:25;67155.78;;;17.34;50.19
6835;BME280;3455;42.150;24.734;2023-05-12T04:40:56;67165.25;;;17.24;50.31
6835;BME280;3455;42.150;24.734;2023-05-12T04:43:23;67191.66;;;17.34;50.38
6835;BME280;3455;42.150;24.734;2023-05-12T04:45:50;67198.06;;;17.67;49.70
6835;BME280;3455;42.150;24.734;2023-05-12T04:48:18;67271.91;;;18.09;48.75
6835;BME280;3455;42.150;24.734;2023-05-12T04:50:45;67274.63;;;18.03;48.29
6835;BME280;3455;42.150;24.734;2023-05-12T04:53:14;67212.56;;;17.52;49.41
6835;BME280;3455;42.150;24.734;2023-05-12T04:55:40;67215.97;;;17.78;48.55
6835;BME280;3455;42.150;24.734;2023-05-12T04:58:10;67194.09;;;17.41;49.90
6835;BME280;3455;42.150;24.734;2023-05-12T05:00:37;67224.84;;;17.68;49.30
6835;BME280;3455;42.150;24.734;2023-05-12T05:03:03;67231.16;;;17.69;49.34
6835;BME280;3455;42.150;24.734;2023-05-12T05:05:31;67275.97;;;18.13;48.50
6835;BME280;3455;42.150;24.734;2023-05-12T05:07:57;67237.06;;;18.06;48.60
6835;BME280;3455;42.150;24.734;2023-05-12T05:10:25;67229.50;;;18.26;48.15
6835;BME280;3455;42.150;24.734;2023-05-12T05:12:52;67261.28;;;18.18;48.18
6835;BME280;3455;42.150;24.734;2023-05-12T05:15:19;67293.41;;;18.28;47.86
6835;BME280;3455;42.150;24.734;2023-05-12T05:17:45;67238.81;;;17.80;48.86
6835;BME280;3455;42.150;24.734;2023-05-12T05:20:13;67217.31;;;17.61;49.50
6835;BME280;3455;42.150;24.734;2023-05-12T05:22:40;67243.47;;;17.84;49.17
6835;BME280;3455;42.150;24.734;2023-05-12T05:25:07;67257.78;;;18.15;48.21
6835;BME280;3455;42.150;24.734;2023-05-12T05:27:36;67306.03;;;18.19;48.54
6835;BME280;3455;42.150;24.734;2023-05-12T05:30:03;67315.97;;;18.44;47.83
6835;BME280;3455;42.150;24.734;2023-05-12T05:32:30;67174.84;;;17.74;49.49
6835;BME280;3455;42.150;24.734;2023-05-12T05:34:57;67309.06;;;18.54;47.85
6835;BME280;3455;42.150;24.734;2023-05-12T05:37:24;67296.31;;;18.04;48.09
6835;BME280;3455;42.150;24.734;2023-05-12T05:39:51;67242.34;;;17.99;48.87
6835;BME280;3455;42.150;24.734;2023-05-12T05:42:18;67337.59;;;18.67;47.44
6835;BME280;3455;42.150;24.734;2023-05-12T05:44:46;67339.94;;;18.58;47.87
6835;BME280;3455;42.150;24.734;2023-05-12T05:47:13;67321.00;;;18.66;47.60
6835;BME280;3455;42.150;24.734;2023-05-12T05:49:39;67396.34;;;19.19;46.23
6835;BME280;3455;42.150;24.734;2023-05-12T05:52:06;67366.69;;;18.93;46.97
6835;BME280;3455;42.150;24.734;2023-05-12T05:54:33;67449.25;;;19.66;45.44
6835;BME280;3455;42.150;24.734;2023-05-12T05:57:00;67398.25;;;19.30;45.26
6835;BME280;3455;42.150;24.734;2023-05-12T05:59:27;67452.13;;;19.96;44.11
6835;BME280;3455;42.150;24.734;2023-05-12T06:01:55;67558.72;;;20.63;42.49
6835;BME280;3455;42.150;24.734;2023-05-12T06:04:22;67464.44;;;20.11;43.32
6835;BME280;3455;42.150;24.734;2023-05-12T06:06:48;67615.75;;;21.13;41.36
6835;BME280;3455;42.150;24.734;2023-05-12T06:09:15;67655.06;;;21.61;39.84
6835;BME280;3455;42.150;24.734;2023-05-12T06:11:42;67575.00;;;20.77;41.37
6835;BME280;3455;42.150;24.734;2023-05-12T06:14:09;67527.25;;;20.35;42.06
6835;BME280;3455;42.150;24.734;2023-05-12T06:16:35;67604.44;;;20.89;41.54
6835;BME280;3455;42.150;24.734;2023-05-12T06:19:03;67702.69;;;21.78;39.78
6835;BME280;3455;42.150;24.734;2023-05-12T06:21:30;67841.19;;;22.82;38.24
6835;BME280;3455;42.150;24.734;2023-05-12T06:23:57;67962.81;;;23.82;36.30
6835;BME280;3455;42.150;24.734;2023-05-12T06:26:24;68212.16;;;25.78;32.76
6835;BME280;3455;42.150;24.734;2023-05-12T06:28:51;68152.09;;;25.39;32.90
6835;BME280;3455;42.150;24.734;2023-05-12T06:31:17;68006.94;;;24.39;34.64
6835;BME280;3455;42.150;24.734;2023-05-12T06:33:44;68136.88;;;25.25;32.82
6835;BME280;3455;42.150;24.734;2023-05-12T06:36:12;68014.22;;;24.59;34.21
6835;BME280;3455;42.150;24.734;2023-05-12T06:38:39;68125.34;;;25.24;33.54
6835;BME280;3455;42.150;24.734;2023-05-12T06:41:06;68345.69;;;26.58;31.30
6835;BME280;3455;42.150;24.734;2023-05-12T06:43:32;68190.56;;;25.63;32.23
6835;BME280;3455;42.150;24.734;2023-05-12T06:45:59;68087.91;;;24.92;32.84
6835;BME280;3455;42.150;24.734;2023-05-12T06:48:26;68121.66;;;25.12;33.03
6835;BME280;3455;42.150;24.734;2023-05-12T06:50:53;67996.16;;;24.47;34.27
6835;BME280;3455;42.150;24.734;2023-05-12T06:53:21;68112.31;;;25.04;33.88
6835;BME280;3455;42.150;24.734;2023-05-12T06:55:48;68224.22;;;25.75;31.97
6835;BME280;3455;42.150;24.734;2023-05-12T06:58:15;68511.47;;;27.53;29.50
6835;BME280;3455;42.150;24.734;2023-05-12T07:00:43;68412.75;;;27.31;30.03
6835;BME280;3455;42.150;24.734;2023-05-12T07:03:10;68313.25;;;26.53;30.69
6835;BME280;3455;42.150;24.734;2023-05-12T07:05:36;68103.91;;;25.19;31.45
6835;BME280;3455;42.150;24.734;2023-05-12T07:08:04;68079.84;;;24.94;32.21
6835;BME280;3455;42.150;24.734;2023-05-12T07:10:32;68081.34;;;25.13;32.10
6835;BME280;3455;42.150;24.734;2023-05-12T07:12:59;68056.34;;;24.64;33.26
6835;BME280;3455;42.150;24.734;2023-05-12T07:15:26;67848.31;;;23.45;34.57
6835;BME280;3455;42.150;24.734;2023-05-12T07:17:53;67966.50;;;23.94;33.94
6835;BME280;3455;42.150;24.734;2023-05-12T07:20:20;67833.84;;;23.05;35.38
6835;BME280;3455;42.150;24.734;2023-05-12T07:22:48;67772.97;;;22.74;36.64
6835;BME280;3455;42.150;24.734;2023-05-12T07:25:16;67766.91;;;22.71;36.60
6835;BME280;3455;42.150;24.734;2023-05-12T07:27:44;67799.31;;;22.86;35.84
6835;BME280;3455;42.150;24.734;2023-05-12T07:30:11;67954.72;;;23.47;33.71
6835;BME280;3455;42.150;24.734;2023-05-12T07:32:38;67954.81;;;23.84;33.99
6835;BME280;3455;42.150;24.734;2023-05-12T07:35:06;67939.94;;;23.89;33.16
6835;BME280;3455;42.150;24.734;2023-05-12T07:37:33;67924.81;;;23.80;32.78
6835;BME280;3455;42.150;24.734;2023-05-12T07:40:00;67915.38;;;23.67;33.48
6835;BME280;3455;42.150;24.734;2023-05-12T07:42:26;67895.69;;;23.59;34.05
6835;BME280;3455;42.150;24.734;2023-05-12T07:44:55;67921.06;;;23.63;34.17
6835;BME280;3455;42.150;24.734;2023-05-12T07:47:21;67921.75;;;23.68;34.21
6835;BME280;3455;42.150;24.734;2023-05-12T07:49:48;67944.53;;;23.88;34.35
6835;BME280;3455;42.150;24.734;2023-05-12T07:52:15;68092.22;;;25.09;32.84
6835;BME280;3455;42.150;24.734;2023-05-12T07:54:42;68350.97;;;26.63;29.48
6835;BME280;3455;42.150;24.734;2023-05-12T07:57:09;68229.50;;;26.16;29.31
6835;BME280;3455;42.150;24.734;2023-05-12T07:59:36;68270.84;;;26.38;28.96
6835;BME280;3455;42.150;24.734;2023-05-12T08:02:04;68365.97;;;26.99;27.36
6835;BME280;3455;42.150;24.734;2023-05-12T08:04:30;68428.22;;;27.22;26.54
6835;BME280;3455;42.150;24.734;2023-05-12T08:06:57;68444.28;;;27.49;26.91
6835;BME280;3455;42.150;24.734;2023-05-12T08:09:24;68409.53;;;27.10;26.47
6835;BME280;3455;42.150;24.734;2023-05-12T08:11:51;68396.72;;;27.03;25.81
6835;BME280;3455;42.150;24.734;2023-05-12T08:14:17;68296.47;;;26.52;27.48
6835;BME280;3455;42.150;24.734;2023-05-12T08:16:44;68261.91;;;26.21;27.24
6835;BME280;3455;42.150;24.734;2023-05-12T08:19:12;68062.78;;;25.06;29.86
6835;BME280;3455;42.150;24.734;2023-05-12T08:21:39;68057.66;;;24.74;30.98
6835;BME280;3455;42.150;24.734;2023-05-12T08:24:06;68076.22;;;24.81;31.98
6835;BME280;3455;42.150;24.734;2023-05-12T08:26:32;68099.16;;;25.11;31.21
6835;BME280;3455;42.150;24.734;2023-05-12T08:28:59;68482.19;;;27.69;27.64
6835;BME280;3455;42.150;24.734;2023-05-12T08:31:26;68457.84;;;27.66;26.95
6835;BME280;3455;42.150;24.734;2023-05-12T08:33:53;68427.84;;;27.35;27.56
6835;BME280;3455;42.150;24.734;2023-05-12T08:36:21;68294.25;;;26.59;28.50
6835;BME280;3455;42.150;24.734;2023-05-12T08:38:48;68233.38;;;26.06;28.66
6835;BME280;3455;42.150;24.734;2023-05-12T08:41:17;68279.09;;;26.50;28.12
6835;BME280;3455;42.150;24.734;2023-05-12T08:43:50;68524.72;;;28.24;25.60
6835;BME280;3455;42.150;24.734;2023-05-12T08:46:17;68618.41;;;28.67;24.77
6835;BME280;3455;42.150;24.734;2023-05-12T08:48:45;68575.28;;;28.73;24.69
6835;BME280;3455;42.150;24.734;2023-05-12T08:51:13;68379.44;;;27.47;26.60
6835;BME280;3455;42.150;24.734;2023-05-12T08:53:41;68534.50;;;28.19;26.06
6835;BME280;3455;42.150;24.734;2023-05-12T08:56:09;68548.84;;;28.09;25.75
6835;BME280;3455;42.150;24.734;2023-05-12T08:58:38;68312.72;;;26.57;27.39
6835;BME280;3455;42.150;24.734;2023-05-12T09:01:05;68164.59;;;25.63;28.25
6835;BME280;3455;42.150;24.734;2023-05-12T09:03:33;68155.28;;;25.39;29.30
6835;BME280;3455;42.150;24.734;2023-05-12T09:06:00;68193.44;;;25.98;27.57
6835;BME280;3455;42.150;24.734;2023-05-12T09:08:29;68187.84;;;25.75;28.45
6835;BME280;3455;42.150;24.734;2023-05-12T09:10:59;68128.03;;;25.50;28.81
6835;BME280;3455;42.150;24.734;2023-05-12T09:13:31;68061.53;;;25.00;29.37
6835;BME280;3455;42.150;24.734;2023-05-12T09:16:03;68084.41;;;25.25;29.82
6835;BME280;3455;42.150;24.734;2023-05-12T09:18:45;68228.56;;;25.92;29.04
6835;BME280;3455;42.150;24.734;2023-05-12T09:21:12;68241.34;;;25.99;28.09
6835;BME280;3455;42.150;24.734;2023-05-12T09:23:39;68118.75;;;25.46;28.92
6835;BME280;3455;42.150;24.734;2023-05-12T09:26:07;68295.47;;;26.60;27.94
6835;BME280;3455;42.150;24.734;2023-05-12T09:28:35;68497.22;;;28.05;25.87
6835;BME280;3455;42.150;24.734;2023-05-12T09:31:13;68723.97;;;29.25;24.13
6835;BME280;3455;42.150;24.734;2023-05-12T09:33:40;68614.03;;;28.66;24.65
6835;BME280;3455;42.150;24.734;2023-05-12T09:36:07;68464.88;;;27.72;25.59
6835;BME280;3455;42.150;24.734;2023-05-12T09:38:34;68351.28;;;26.82;25.67
6835;BME280;3455;42.150;24.734;2023-05-12T09:41:00;68428.00;;;27.44;25.47
6835;BME280;3455;42.150;24.734;2023-05-12T09:43:29;68643.56;;;28.85;22.84
6835;BME280;3455;42.150;24.734;2023-05-12T09:45:56;68628.00;;;28.69;23.56
6835;BME280;3455;42.150;24.734;2023-05-12T09:48:22;68657.41;;;28.99;23.59
6835;BME280;3455;42.150;24.734;2023-05-12T09:50:50;68792.38;;;29.99;22.26
6835;BME280;3455;42.150;24.734;2023-05-12T09:53:18;68972.34;;;31.01;20.86
6835;BME280;3455;42.150;24.734;2023-05-12T09:55:47;69000.47;;;31.37;20.51
6835;BME280;3455;42.150;24.734;2023-05-12T09:58:15;68946.47;;;30.83;21.61
6835;BME280;3455;42.150;24.734;2023-05-12T10:00:44;69075.75;;;31.68;20.81
6835;BME280;3455;42.150;24.734;2023-05-12T10:03:13;69107.47;;;31.87;20.33
6835;BME280;3455;42.150;24.734;2023-05-12T10:05:45;69085.34;;;31.65;20.61
6835;BME280;3455;42.150;24.734;2023-05-12T10:08:18;68975.16;;;31.40;20.25
6835;BME280;3455;42.150;24.734;2023-05-12T10:10:47;69212.78;;;32.55;19.71
6835;BME280;3455;42.150;24.734;2023-05-12T10:13:16;69100.50;;;31.90;19.84
6835;BME280;3455;42.150;24.734;2023-05-12T10:15:45;68983.56;;;31.36;19.69
6835;BME280;3455;42.150;24.734;2023-05-12T10:18:13;69151.25;;;32.34;18.92
6835;BME280;3455;42.150;24.734;2023-05-12T10:20:42;69289.84;;;33.00;19.26
6835;BME280;3455;42.150;24.734;2023-05-12T10:23:11;69020.53;;;31.79;19.48
6835;BME280;3455;42.150;24.734;2023-05-12T10:25:40;69235.75;;;32.50;19.19
6835;BME280;3455;42.150;24.734;2023-05-12T10:28:08;69379.84;;;33.46;18.52
6835;BME280;3455;42.150;24.734;2023-05-12T10:30:36;69234.06;;;32.74;18.84
6835;BME280;3455;42.150;24.734;2023-05-12T10:33:05;69571.88;;;34.48;17.18
6835;BME280;3455;42.150;24.734;2023-05-12T10:35:36;69288.41;;;33.21;18.91
6835;BME280;3455;42.150;24.734;2023-05-12T10:38:07;69078.09;;;31.70;19.84
6835;BME280;3455;42.150;24.734;2023-05-12T10:40:34;69209.38;;;32.62;18.66
6835;BME280;3455;42.150;24.734;2023-05-12T10:43:01;69006.03;;;31.39;19.51
6835;BME280;3455;42.150;24.734;2023-05-12T10:45:34;69423.34;;;33.86;17.98
6835;BME280;3455;42.150;24.734;2023-05-12T10:48:06;69577.69;;;34.44;17.32
6835;BME280;3455;42.150;24.734;2023-05-12T10:50:34;69192.06;;;32.33;19.04
6835;BME280;3455;42.150;24.734;2023-05-12T10:53:00;69354.66;;;33.42;17.83
6835;BME280;3455;42.150;24.734;2023-05-12T10:55:32;69341.06;;;33.30;18.11
6835;BME280;3455;42.150;24.734;2023-05-12T10:58:08;69394.75;;;33.68;18.10
6835;BME280;3455;42.150;24.734;2023-05-12T11:00:45;69150.72;;;32.38;18.56
6835;BME280;3455;42.150;24.734;2023-05-12T11:03:15;69408.63;;;33.78;18.25
6835;BME280;3455;42.150;24.734;2023-05-12T11:05:43;68914.03;;;30.91;19.84
6835;BME280;3455;42.150;24.734;2023-05-12T11:08:11;69010.25;;;31.48;19.50
6835;BME280;3455;42.150;24.734;2023-05-12T11:10:40;68687.59;;;29.39;21.68
6835;BME280;3455;42.150;24.734;2023-05-12T11:13:08;69010.03;;;31.34;20.37
6835;BME280;3455;42.150;24.734;2023-05-12T11:15:35;68880.38;;;30.57;20.97
6835;BME280;3455;42.150;24.734;2023-05-12T11:18:02;68886.78;;;30.58;20.52
6835;BME280;3455;42.150;24.734;2023-05-12T11:20:30;68976.06;;;31.18;20.72
6835;BME280;3455;42.150;24.734;2023-05-12T11:22:57;68826.88;;;30.56;20.98
6835;BME280;3455;42.150;24.734;2023-05-12T11:25:25;68811.97;;;30.09;21.30
6835;BME280;3455;42.150;24.734;2023-05-12T11:27:52;68608.41;;;28.79;22.47
6835;BME280;3455;42.150;24.734;2023-05-12T11:30:19;68472.19;;;27.96;24.04
6835;BME280;3455;42.150;24.734;2023-05-12T11:32:46;68703.78;;;29.56;21.87
6835;BME280;3455;42.150;24.734;2023-05-12T11:35:14;68926.03;;;30.79;20.21
6835;BME280;3455;42.150;24.734;2023-05-12T11:37:44;68595.16;;;28.86;22.17
6835;BME280;3455;42.150;24.734;2023-05-12T11:40:15;68504.25;;;28.11;24.04
6835;BME280;3455;42.150;24.734;2023-05-12T11:42:42;68795.59;;;29.99;21.64
6835;BME280;3455;42.150;24.734;2023-05-12T11:45:23;68890.84;;;30.57;20.39
6835;BME280;3455;42.150;24.734;2023-05-12T11:47:50;68676.34;;;29.45;22.04
6835;BME280;3455;42.150;24.734;2023-05-12T11:50:21;68802.94;;;30.08;21.71
6835;BME280;3455;42.150;24.734;2023-05-12T11:52:50;68936.31;;;30.85;20.96
6835;BME280;3455;42.150;24.734;2023-05-12T11:55:22;68915.63;;;30.83;20.33
6835;BME280;3455;42.150;24.734;2023-05-12T11:58:00;68950.16;;;30.95;20.60
6835;BME280;3455;42.150;24.734;2023-05-12T12:00:31;69211.47;;;32.04;19.28
6835;BME280;3455;42.150;24.734;2023-05-12T12:03:19;69074.69;;;31.76;19.76
6835;BME280;3455;42.150;24.734;2023-05-12T12:05:57;68964.41;;;31.17;20.43
6835;BME280;3455;42.150;24.734;2023-05-12T12:08:25;69153.72;;;32.45;19.25
6835;BME280;3455;42.150;24.734;2023-05-12T12:10:52;69042.47;;;31.62;20.04
6835;BME280;3455;42.150;24.734;2023-05-12T12:13:19;68806.59;;;30.41;20.41
6835;BME280;3455;42.150;24.734;2023-05-12T12:15:46;69026.59;;;31.53;20.34
6835;BME280;3455;42.150;24.734;2023-05-12T12:18:13;68926.44;;;30.86;20.16
6835;BME280;3455;42.150;24.734;2023-05-12T12:20:41;68941.44;;;30.97;20.29
6835;BME280;3455;42.150;24.734;2023-05-12T12:23:08;68770.94;;;30.03;21.29
6835;BME280;3455;42.150;24.734;2023-05-12T12:25:36;68891.09;;;30.76;20.56
6835;BME280;3455;42.150;24.734;2023-05-12T12:28:03;68926.59;;;30.95;20.32
6835;BME280;3455;42.150;24.734;2023-05-12T12:30:30;68951.84;;;31.13;20.76
6835;BME280;3455;42.150;24.734;2023-05-12T12:32:57;68987.81;;;31.28;19.89
6835;BME280;3455;42.150;24.734;2023-05-12T12:35:23;68923.69;;;30.97;20.16
6835;BME280;3455;42.150;24.734;2023-05-12T12:37:50;68724.00;;;29.71;21.51
6835;BME280;3455;42.150;24.734;2023-05-12T12:40:18;69079.97;;;30.31;20.61
6835;BME280;3455;42.150;24.734;2023-05-12T12:42:46;68674.25;;;29.62;21.66
6835;BME280;3455;42.150;24.734;2023-05-12T12:45:13;68680.13;;;29.46;21.40
6835;BME280;3455;42.150;24.734;2023-05-12T12:47:39;68630.47;;;29.21;21.58
6835;BME280;3455;42.150;24.734;2023-05-12T12:50:07;68622.69;;;29.05;22.01
6835;BME280;3455;42.150;24.734;2023-05-12T12:52:35;68853.97;;;30.39;21.22
6835;BME280;3455;42.150;24.734;2023-05-12T12:55:03;68736.97;;;29.82;21.82
6835;BME280;3455;42.150;24.734;2023-05-12T12:57:30;68787.97;;;30.18;21.02
6835;BME280;3455;42.150;24.734;2023-05-12T12:59:58;68576.97;;;28.70;22.27
6835;BME280;3455;42.150;24.734;2023-05-12T13:02:25;68573.75;;;28.49;22.45
6835;BME280;3455;42.150;24.734;2023-05-12T13:04:52;68625.09;;;29.12;22.02
6835;BME280;3455;42.150;24.734;2023-05-12T13:07:19;68539.72;;;28.60;22.96
6835;BME280;3455;42.150;24.734;2023-05-12T13:09:46;68689.16;;;29.27;22.40
6835;BME280;3455;42.150;24.734;2023-05-12T13:12:13;68654.31;;;29.24;22.79